createdAt,value
2022-12-17T00:02:30.835Z,7.30
2022-12-17T00:05:16.929Z,7.57
2022-12-17T00:10:48.085Z,7.00
2022-12-17T00:13:33.969Z,7.43
2022-12-17T00:16:20.508Z,7.25
2022-12-17T00:19:09.111Z,7.93
2022-12-17T00:21:56.398Z,7.65
2022-12-17T00:24:42.007Z,7.63
2022-12-17T00:27:27.644Z,6.95
2022-12-17T00:30:13.355Z,8.10
2022-12-17T00:32:58.870Z,7.55
2022-12-17T00:35:44.604Z,7.57
2022-12-17T00:38:30.104Z,7.57
2022-12-17T00:41:15.710Z,7.85
2022-12-17T00:44:01.413Z,8.23
2022-12-17T00:46:47.146Z,8.00
2022-12-17T00:49:33.230Z,7.65
2022-12-17T00:55:04.454Z,7.25
2022-12-17T00:57:50.478Z,7.22
2022-12-17T01:03:22.222Z,7.53
2022-12-17T01:08:53.845Z,7.40
2022-12-17T01:11:42.292Z,7.97
2022-12-17T01:14:27.899Z,7.65
2022-12-17T01:17:13.752Z,7.20
2022-12-17T01:19:59.581Z,7.18
2022-12-17T01:22:45.236Z,7.43
2022-12-17T01:25:30.927Z,7.95
2022-12-17T01:28:16.601Z,7.80
2022-12-17T01:31:02.375Z,8.02
2022-12-17T01:33:48.065Z,7.78
2022-12-17T01:36:44.324Z,7.13
2022-12-17T01:39:29.981Z,7.90
2022-12-17T01:42:15.599Z,8.38
2022-12-17T01:45:01.370Z,7.68
2022-12-17T01:47:48.974Z,7.47
2022-12-17T01:50:34.719Z,7.68
2022-12-17T01:53:20.731Z,7.60
2022-12-17T01:56:06.382Z,7.75
2022-12-17T01:58:51.985Z,7.75
2022-12-17T02:01:37.629Z,7.72
2022-12-17T02:04:23.648Z,7.60
2022-12-17T02:07:09.532Z,7.35
2022-12-17T02:09:55.722Z,7.72
2022-12-17T02:12:41.430Z,7.53
2022-12-17T02:15:27.052Z,7.30
2022-12-17T02:18:12.708Z,7.50
2022-12-17T02:20:58.396Z,7.47
2022-12-17T02:23:43.990Z,7.65
2022-12-17T02:26:29.545Z,7.45
2022-12-17T02:29:15.295Z,7.72
2022-12-17T02:32:01.028Z,7.45
2022-12-17T02:34:47.096Z,7.88
2022-12-17T02:40:18.303Z,7.38
2022-12-17T02:43:03.970Z,7.50
2022-12-17T02:45:50.109Z,7.40
2022-12-17T02:48:36.007Z,7.47
2022-12-17T02:51:21.934Z,7.57
2022-12-17T02:54:07.614Z,7.50
2022-12-17T02:56:53.526Z,7.82
2022-12-17T02:59:39.145Z,7.43
2022-12-17T03:02:24.782Z,7.30
2022-12-17T03:05:35.563Z,7.22
2022-12-17T03:08:16.460Z,7.65
2022-12-17T03:11:02.301Z,7.18
2022-12-17T03:13:48.129Z,7.20
2022-12-17T03:16:37.498Z,7.70
2022-12-17T03:19:23.863Z,7.13
2022-12-17T03:22:09.571Z,7.78
2022-12-17T03:24:55.185Z,7.97
2022-12-17T03:27:40.841Z,7.97
2022-12-17T03:30:26.479Z,7.03
2022-12-17T03:33:12.256Z,7.72
2022-12-17T03:35:58.310Z,8.20
2022-12-17T03:38:43.988Z,7.60
2022-12-17T03:41:30.037Z,7.70
2022-12-17T03:47:01.803Z,7.20
2022-12-17T03:49:47.382Z,7.72
2022-12-17T03:52:33.028Z,7.97
2022-12-17T03:55:18.641Z,7.88
2022-12-17T03:58:04.396Z,7.10
2022-12-17T04:00:50.038Z,8.10
2022-12-17T04:03:36.392Z,7.60
2022-12-17T04:06:22.661Z,7.57
2022-12-17T04:09:08.625Z,7.20
2022-12-17T04:11:54.444Z,7.90
2022-12-17T04:14:40.009Z,7.38
2022-12-17T04:17:26.118Z,7.43
2022-12-17T04:20:11.909Z,7.78
2022-12-17T04:22:57.699Z,7.68
2022-12-17T04:25:43.460Z,7.63
2022-12-17T04:28:29.137Z,7.88
2022-12-17T04:31:14.881Z,7.90
2022-12-17T04:34:00.887Z,7.68
2022-12-17T04:36:46.620Z,7.35
2022-12-17T04:39:32.342Z,7.50
2022-12-17T04:42:18.058Z,7.53
2022-12-17T04:45:03.726Z,7.65
2022-12-17T04:47:49.514Z,7.95
2022-12-17T04:50:35.082Z,7.80
2022-12-17T04:53:20.999Z,7.78
2022-12-17T04:58:52.837Z,7.50
2022-12-17T05:01:38.719Z,7.47
2022-12-17T05:04:24.699Z,7.78
2022-12-17T05:07:10.385Z,7.65
2022-12-17T05:09:56.036Z,7.57
2022-12-17T05:12:41.716Z,7.13
2022-12-17T05:15:27.484Z,8.30
2022-12-17T05:18:13.214Z,8.30
2022-12-17T05:20:59.173Z,8.20
2022-12-17T05:23:44.723Z,7.82
2022-12-17T05:26:30.383Z,8.02
2022-12-17T05:29:16.367Z,7.60
2022-12-17T05:32:02.422Z,7.47
2022-12-17T05:37:33.689Z,7.57
2022-12-17T05:40:19.233Z,8.00
2022-12-17T05:43:05.296Z,7.93
2022-12-17T05:48:47.207Z,7.55
2022-12-17T05:51:38.297Z,7.72
2022-12-17T05:54:24.454Z,8.07
2022-12-17T05:57:10.116Z,7.95
2022-12-17T05:59:55.757Z,8.27
2022-12-17T06:02:41.512Z,7.75
2022-12-17T06:05:27.587Z,8.15
2022-12-17T06:11:18.589Z,8.05
2022-12-17T06:14:04.186Z,7.93
2022-12-17T06:16:49.914Z,7.93
2022-12-17T06:19:35.452Z,8.20
2022-12-17T06:22:21.168Z,8.43
2022-12-17T06:25:06.809Z,8.23
2022-12-17T06:27:52.547Z,7.70
2022-12-17T06:30:38.167Z,8.02
2022-12-17T06:33:23.727Z,7.80
2022-12-17T06:36:09.644Z,7.40
2022-12-17T06:38:55.213Z,7.75
2022-12-17T06:41:51.500Z,7.30
2022-12-17T06:44:38.168Z,7.43
2022-12-17T06:47:23.816Z,8.15
2022-12-17T06:50:09.542Z,7.65
2022-12-17T06:52:55.115Z,8.20
2022-12-17T06:55:40.819Z,8.07
2022-12-17T06:58:26.541Z,7.53
2022-12-17T07:01:12.243Z,7.55
2022-12-17T07:03:58.329Z,8.25
2022-12-17T07:06:43.949Z,7.88
2022-12-17T07:09:29.699Z,7.78
2022-12-17T07:12:15.149Z,7.97
2022-12-17T07:15:01.096Z,8.30
2022-12-17T07:17:49.236Z,7.90
2022-12-17T07:20:34.793Z,7.78
2022-12-17T07:23:20.480Z,7.93
2022-12-17T07:26:06.190Z,8.05
2022-12-17T07:28:51.990Z,7.65
2022-12-17T07:31:37.733Z,7.82
2022-12-17T07:34:23.645Z,7.88
2022-12-17T07:37:09.536Z,7.93
2022-12-17T07:39:55.218Z,7.60
2022-12-17T07:42:40.841Z,7.78
2022-12-17T07:45:26.589Z,7.68
2022-12-17T07:48:12.485Z,7.55
2022-12-17T07:50:58.138Z,7.72
2022-12-17T07:53:43.873Z,7.90
2022-12-17T07:56:29.563Z,8.13
2022-12-17T07:59:15.177Z,7.63
2022-12-17T08:02:01.662Z,6.93
2022-12-17T08:04:47.641Z,7.78
2022-12-17T08:07:33.326Z,7.60
2022-12-17T08:10:19.361Z,7.60
2022-12-17T08:13:08.385Z,7.82
2022-12-17T08:15:58.137Z,7.57
2022-12-17T08:18:44.181Z,7.78
2022-12-17T08:21:29.850Z,7.30
2022-12-17T08:24:15.300Z,7.07
2022-12-17T08:27:00.940Z,8.02
2022-12-17T08:29:46.572Z,7.90
2022-12-17T08:32:32.245Z,8.05
2022-12-17T08:35:17.789Z,7.80
2022-12-17T08:38:16.968Z,7.80
2022-12-17T08:41:02.770Z,7.70
2022-12-17T08:43:48.893Z,8.10
2022-12-17T08:49:20.814Z,7.47
2022-12-17T08:52:06.435Z,7.70
2022-12-17T08:54:52.007Z,7.63
2022-12-17T08:57:37.693Z,7.70
2022-12-17T09:00:23.605Z,7.90
2022-12-17T09:03:09.118Z,7.90
2022-12-17T09:05:55.061Z,7.88
2022-12-17T09:08:40.622Z,7.68
2022-12-17T09:11:26.248Z,7.55
2022-12-17T09:14:12.245Z,8.13
2022-12-17T09:16:58.008Z,7.90
2022-12-17T09:19:44.290Z,7.72
2022-12-17T09:22:30.233Z,7.97
2022-12-17T09:25:15.826Z,8.07
2022-12-17T09:28:02.056Z,8.23
2022-12-17T09:33:33.790Z,8.35
2022-12-17T09:36:19.869Z,8.30
2022-12-17T09:39:05.599Z,8.68
2022-12-17T09:41:51.645Z,9.48
2022-12-17T09:47:22.935Z,9.13
2022-12-17T09:50:08.657Z,9.55
2022-12-17T09:52:54.309Z,9.65
2022-12-17T09:55:40.189Z,10.50
2022-12-17T10:01:11.737Z,11.40
2022-12-17T10:03:57.967Z,12.10
2022-12-17T10:06:43.923Z,11.23
2022-12-17T10:09:29.706Z,11.68
2022-12-17T10:12:15.551Z,12.02
2022-12-17T10:15:01.175Z,12.38
2022-12-17T10:17:46.805Z,11.55
2022-12-17T10:20:32.401Z,10.77
2022-12-17T10:23:18.129Z,11.75
2022-12-17T10:26:03.780Z,11.88
2022-12-17T10:28:49.470Z,11.40
2022-12-17T10:31:35.583Z,11.82
2022-12-17T10:34:21.531Z,11.80
2022-12-17T10:37:17.726Z,11.75
2022-12-17T10:40:03.305Z,11.40
2022-12-17T10:42:49.079Z,11.68
2022-12-17T10:45:34.723Z,11.18
2022-12-17T10:48:20.895Z,11.85
2022-12-17T10:53:52.301Z,12.52
2022-12-17T10:56:37.991Z,11.23
2022-12-17T10:59:23.773Z,11.95
2022-12-17T11:02:20.408Z,11.40
2022-12-17T11:05:06.245Z,11.20
2022-12-17T11:07:52.120Z,14.18
2022-12-17T11:10:37.806Z,12.73
2022-12-17T11:13:23.331Z,12.15
2022-12-17T11:16:09.239Z,11.60
2022-12-17T11:18:55.298Z,10.88
2022-12-17T11:24:27.173Z,11.23
2022-12-17T11:27:15.541Z,11.55
2022-12-17T11:30:01.209Z,11.10
2022-12-17T11:32:46.881Z,10.90
2022-12-17T11:35:32.911Z,11.88
2022-12-17T11:38:18.492Z,11.05
2022-12-17T11:41:04.218Z,12.23
2022-12-17T11:43:49.826Z,11.73
2022-12-17T11:46:35.618Z,11.30
2022-12-17T11:49:21.606Z,11.57
2022-12-17T11:52:07.328Z,12.10
2022-12-17T11:54:53.032Z,11.85
2022-12-17T11:57:38.609Z,12.43
2022-12-17T12:00:24.449Z,11.98
2022-12-17T12:03:10.494Z,11.85
2022-12-17T12:05:57.028Z,12.13
2022-12-17T12:08:43.120Z,11.65
2022-12-17T12:11:31.732Z,11.85
2022-12-17T12:14:34.414Z,12.27
2022-12-17T12:17:20.448Z,11.80
2022-12-17T12:22:51.786Z,12.63
2022-12-17T12:25:37.793Z,12.23
2022-12-17T12:31:09.167Z,12.77
2022-12-17T12:33:55.394Z,12.43
2022-12-17T12:36:40.929Z,12.75
2022-12-17T12:39:26.786Z,13.63
2022-12-17T12:42:12.374Z,12.93
2022-12-17T12:44:58.043Z,13.57
2022-12-17T12:47:43.797Z,11.98
2022-12-17T12:50:29.574Z,11.85
2022-12-17T12:53:15.573Z,12.77
2022-12-17T12:58:47.067Z,11.98
2022-12-17T13:01:32.935Z,12.80
2022-12-17T13:04:18.982Z,12.95
2022-12-17T13:06:46.524Z,12.30
2022-12-17T13:09:13.630Z,12.38
2022-12-17T13:11:40.719Z,13.07
2022-12-17T13:14:07.833Z,13.02
2022-12-17T13:16:35.050Z,12.55
2022-12-17T13:19:02.293Z,12.68
2022-12-17T13:21:31.561Z,12.32
2022-12-17T13:23:59.026Z,13.40
2022-12-17T13:26:26.142Z,12.20
2022-12-17T13:28:53.260Z,12.02
2022-12-17T13:31:20.373Z,12.40
2022-12-17T13:33:47.492Z,12.82
2022-12-17T13:36:14.597Z,13.23
2022-12-17T13:38:41.876Z,12.50
2022-12-17T13:41:10.389Z,11.68
2022-12-17T13:43:37.973Z,12.80
2022-12-17T13:46:05.222Z,12.70
2022-12-17T13:48:32.426Z,12.68
2022-12-17T13:51:02.502Z,12.68
2022-12-17T13:53:29.695Z,11.50
2022-12-17T13:55:56.836Z,12.20
2022-12-17T13:58:24.010Z,11.60
2022-12-17T14:00:51.211Z,11.45
2022-12-17T14:03:18.472Z,11.60
2022-12-17T14:05:46.024Z,12.82
2022-12-17T14:08:13.109Z,12.25
2022-12-17T14:10:40.230Z,11.63
2022-12-17T14:13:07.321Z,12.02
2022-12-17T14:15:34.454Z,11.82
2022-12-17T14:18:01.530Z,11.85
2022-12-17T14:20:28.596Z,11.95
2022-12-17T14:22:55.900Z,12.48
2022-12-17T14:25:23.015Z,12.07
2022-12-17T14:27:50.189Z,11.32
2022-12-17T14:30:17.262Z,11.52
2022-12-17T14:32:44.340Z,13.10
2022-12-17T14:35:11.441Z,12.80
2022-12-17T14:37:38.522Z,12.95
2022-12-17T14:40:05.670Z,13.20
2022-12-17T14:42:32.786Z,12.55
2022-12-17T14:44:59.958Z,12.18
2022-12-17T14:47:27.194Z,12.20
2022-12-17T14:49:55.782Z,12.43
2022-12-17T14:52:23.065Z,11.43
2022-12-17T14:54:50.115Z,12.23
2022-12-17T14:57:17.180Z,12.30
2022-12-17T14:59:45.535Z,11.48
2022-12-17T15:02:13.093Z,12.82
2022-12-17T15:04:40.337Z,11.73
2022-12-17T15:07:09.810Z,11.63
2022-12-17T15:09:39.799Z,11.88
2022-12-17T15:12:06.893Z,12.32
2022-12-17T15:14:34.034Z,12.57
2022-12-17T15:17:01.682Z,12.07
2022-12-17T15:19:28.821Z,12.43
2022-12-17T15:21:55.967Z,12.07
2022-12-17T15:24:23.044Z,12.35
2022-12-17T15:26:50.307Z,12.50
2022-12-17T15:29:17.464Z,13.00
2022-12-17T15:31:44.586Z,12.68
2022-12-17T15:34:11.793Z,12.52
2022-12-17T15:36:38.915Z,12.68
2022-12-17T15:39:07.078Z,12.55
2022-12-17T15:41:52.830Z,12.80
2022-12-17T15:44:20.016Z,13.43
2022-12-17T15:46:47.219Z,13.20
2022-12-17T15:49:14.417Z,13.15
2022-12-17T15:51:41.701Z,12.98
2022-12-17T15:54:08.917Z,12.27
2022-12-17T15:56:37.224Z,14.13
2022-12-17T15:59:04.302Z,14.52
2022-12-17T16:01:31.508Z,13.73
2022-12-17T16:03:58.773Z,13.52
2022-12-17T16:06:26.302Z,13.82
2022-12-17T16:08:53.554Z,13.48
2022-12-17T16:11:20.697Z,13.68
2022-12-17T16:13:47.774Z,12.73
2022-12-17T16:16:14.917Z,13.07
2022-12-17T16:18:42.230Z,13.20
2022-12-17T16:21:09.839Z,12.60
2022-12-17T16:23:37.014Z,13.23
2022-12-17T16:26:04.118Z,13.73
2022-12-17T16:28:31.294Z,14.30
2022-12-17T16:30:58.509Z,13.63
2022-12-17T16:33:27.139Z,13.50
2022-12-17T16:35:57.004Z,14.63
2022-12-17T16:38:24.060Z,13.65
2022-12-17T16:40:51.159Z,13.25
2022-12-17T16:43:18.730Z,13.48
2022-12-17T16:45:45.812Z,12.80
2022-12-17T16:48:12.919Z,13.40
2022-12-17T16:50:40.065Z,13.68
2022-12-17T16:53:07.171Z,14.65
2022-12-17T16:55:34.234Z,14.40
2022-12-17T16:58:01.320Z,13.13
2022-12-17T17:00:28.445Z,13.70
2022-12-17T17:02:55.659Z,13.10
2022-12-17T17:05:24.583Z,13.18
2022-12-17T17:07:52.146Z,13.93
2022-12-17T17:10:19.248Z,13.30
2022-12-17T17:12:46.306Z,13.40
2022-12-17T17:15:13.476Z,12.70
2022-12-17T17:17:54.197Z,13.65
2022-12-17T17:20:22.237Z,12.48
2022-12-17T17:22:49.307Z,12.57
2022-12-17T17:25:16.380Z,12.40
2022-12-17T17:27:43.476Z,12.60
2022-12-17T17:30:10.581Z,12.50
2022-12-17T17:32:37.828Z,12.55
2022-12-17T17:35:05.641Z,12.65
2022-12-17T17:37:32.855Z,12.38
2022-12-17T17:39:59.949Z,12.27
2022-12-17T17:42:27.021Z,12.23
2022-12-17T17:44:54.102Z,13.45
2022-12-17T17:47:21.196Z,13.07
2022-12-17T17:49:48.346Z,13.50
2022-12-17T17:52:15.490Z,12.70
2022-12-17T17:54:42.603Z,14.15
2022-12-17T17:57:09.728Z,14.88
2022-12-17T17:59:36.874Z,15.40
2022-12-17T18:02:04.617Z,14.13
2022-12-17T18:04:31.867Z,15.38
2022-12-17T18:09:47.578Z,16.10
2022-12-17T18:12:33.772Z,16.52
2022-12-17T18:17:45.801Z,16.13
2022-12-17T18:20:13.233Z,16.63
2022-12-17T18:22:40.359Z,16.70
2022-12-17T18:25:07.651Z,17.23
2022-12-17T18:27:34.855Z,16.23
2022-12-17T18:30:02.016Z,16.23
2022-12-17T18:32:29.164Z,16.35
2022-12-17T18:34:56.372Z,16.27
2022-12-17T18:37:23.533Z,16.23
2022-12-17T18:39:50.627Z,16.70
2022-12-17T18:42:36.600Z,16.70
2022-12-17T18:47:31.158Z,14.80
2022-12-17T18:49:58.271Z,16.50
2022-12-17T18:52:25.453Z,16.00
2022-12-17T18:54:52.630Z,16.25
2022-12-17T18:57:19.790Z,15.52
2022-12-17T18:59:46.964Z,16.05
2022-12-17T19:02:14.231Z,16.88
2022-12-17T19:04:41.516Z,15.55
2022-12-17T19:07:08.666Z,15.88
2022-12-17T19:09:36.277Z,16.33
2022-12-17T19:12:03.577Z,15.60
2022-12-17T19:14:30.730Z,15.85
2022-12-17T19:16:58.143Z,17.20
2022-12-17T19:19:25.398Z,17.60
2022-12-17T19:21:53.633Z,19.60
2022-12-17T19:24:21.583Z,19.38
2022-12-17T19:26:48.795Z,18.63
2022-12-17T19:29:15.963Z,18.30
2022-12-17T19:31:43.762Z,19.17
2022-12-17T19:34:11.025Z,18.33
2022-12-17T19:36:39.240Z,18.88
2022-12-17T19:39:06.368Z,18.23
2022-12-17T19:41:33.483Z,18.50
2022-12-17T19:44:00.554Z,18.02
2022-12-17T19:46:27.662Z,18.80
2022-12-17T19:48:54.760Z,17.70
2022-12-17T19:51:24.580Z,16.58
2022-12-17T19:53:51.808Z,16.30
2022-12-17T19:56:18.997Z,16.30
2022-12-17T19:58:46.118Z,16.42
2022-12-17T20:01:13.505Z,16.63
2022-12-17T20:03:40.852Z,17.52
2022-12-17T20:06:08.085Z,16.88
2022-12-17T20:08:35.431Z,17.42
2022-12-17T20:11:02.649Z,16.73
2022-12-17T20:13:29.770Z,17.10
2022-12-17T20:15:56.884Z,17.73
2022-12-17T20:18:24.015Z,16.08
2022-12-17T20:20:51.110Z,16.23
2022-12-17T20:23:19.809Z,16.02
2022-12-17T20:25:47.126Z,17.02
2022-12-17T20:28:14.206Z,16.45
2022-12-17T20:30:41.405Z,16.02
2022-12-17T20:33:08.520Z,14.95
2022-12-17T20:35:35.714Z,16.85
2022-12-17T20:38:03.227Z,16.42
2022-12-17T20:40:30.411Z,15.98
2022-12-17T20:42:57.561Z,17.23
2022-12-17T20:45:24.646Z,17.15
2022-12-17T20:47:53.215Z,15.75
2022-12-17T20:50:20.349Z,16.55
2022-12-17T20:52:49.821Z,16.70
2022-12-17T20:55:17.440Z,15.43
2022-12-17T20:57:44.569Z,15.15
2022-12-17T21:00:13.998Z,15.38
2022-12-17T21:02:41.257Z,15.85
2022-12-17T21:05:08.587Z,15.80
2022-12-17T21:07:35.663Z,15.90
2022-12-17T21:10:02.778Z,15.25
2022-12-17T21:12:49.846Z,14.82
2022-12-17T21:15:16.939Z,15.07
2022-12-17T21:17:44.090Z,14.50
2022-12-17T21:20:12.074Z,14.18
2022-12-17T21:22:39.510Z,14.93
2022-12-17T21:25:06.614Z,15.27
2022-12-17T21:27:33.747Z,15.65
2022-12-17T21:30:00.875Z,15.07
2022-12-17T21:32:33.483Z,15.00
2022-12-17T21:35:01.027Z,15.15
2022-12-17T21:37:28.229Z,15.27
2022-12-17T21:39:59.763Z,15.25
2022-12-17T21:42:46.117Z,15.05
2022-12-17T21:45:13.790Z,15.90
2022-12-17T21:47:41.135Z,15.05
2022-12-17T21:50:08.291Z,15.90
2022-12-17T21:52:35.518Z,15.88
2022-12-17T21:55:02.654Z,16.40
2022-12-17T21:57:30.290Z,16.35
2022-12-17T21:59:57.391Z,16.02
2022-12-17T22:02:24.632Z,16.33
2022-12-17T22:04:52.035Z,15.68
2022-12-17T22:07:24.236Z,15.38
2022-12-17T22:10:22.678Z,15.30
2022-12-17T22:13:01.549Z,15.50
2022-12-17T22:15:39.367Z,14.80
2022-12-17T22:18:14.294Z,15.73
2022-12-17T22:20:41.403Z,15.23
2022-12-17T22:23:08.506Z,16.02
2022-12-17T22:25:35.771Z,14.85
2022-12-17T22:28:02.887Z,15.05
2022-12-17T22:30:48.797Z,15.35
2022-12-17T22:33:32.226Z,15.57
2022-12-17T22:39:17.945Z,15.27
2022-12-17T22:41:43.587Z,14.95
2022-12-17T22:44:40.696Z,15.48
2022-12-17T22:44:53.471Z,15.27
2022-12-17T22:47:21.138Z,15.30
2022-12-17T22:49:48.210Z,16.80
2022-12-17T22:52:17.343Z,16.58
2022-12-17T22:54:46.331Z,16.50
2022-12-17T22:57:34.649Z,15.93
2022-12-17T23:00:00.973Z,16.83
2022-12-17T23:02:28.062Z,17.38
2022-12-17T23:04:55.153Z,16.77
2022-12-17T23:07:24.612Z,17.20
2022-12-17T23:09:55.457Z,17.40
2022-12-17T23:12:41.477Z,17.75
2022-12-17T23:17:35.603Z,16.50
2022-12-17T23:20:02.719Z,16.20
2022-12-17T23:22:29.888Z,16.92
2022-12-17T23:24:56.978Z,17.05
2022-12-17T23:27:24.071Z,16.55
2022-12-17T23:29:51.154Z,17.27
2022-12-17T23:32:18.270Z,16.15
2022-12-17T23:34:45.448Z,16.20
2022-12-17T23:37:12.574Z,16.60
2022-12-17T23:39:39.738Z,15.65
2022-12-17T23:42:07.008Z,15.82
2022-12-17T23:44:34.122Z,16.90
2022-12-17T23:47:01.257Z,16.80
2022-12-17T23:49:28.397Z,16.05
2022-12-17T23:51:55.462Z,17.17
2022-12-17T23:54:22.543Z,16.42
2022-12-17T23:56:49.601Z,16.27
2022-12-17T23:59:16.710Z,16.25
